createdAt,value
2017-12-16T00:00:12.684Z,3.60
2017-12-16T00:02:46.549Z,3.50
2017-12-16T00:05:21.456Z,3.40
2017-12-16T00:07:55.265Z,3.40
2017-12-16T00:10:29.782Z,3.30
2017-12-16T00:13:03.635Z,3.20
2017-12-16T00:15:37.424Z,3.20
2017-12-16T00:18:11.253Z,3.20
2017-12-16T00:20:45.108Z,3.20
2017-12-16T00:23:18.935Z,3.10
2017-12-16T00:25:52.935Z,3.20
2017-12-16T00:28:26.492Z,3.20
2017-12-16T00:31:00.464Z,3.20
2017-12-16T00:33:34.254Z,3.30
2017-12-16T00:36:07.986Z,3.30
2017-12-16T00:38:42.551Z,3.30
2017-12-16T00:41:16.134Z,3.30
2017-12-16T00:43:50.065Z,3.30
2017-12-16T00:46:23.756Z,3.30
2017-12-16T00:48:57.665Z,3.30
2017-12-16T00:51:31.368Z,3.20
2017-12-16T00:54:05.402Z,3.10
2017-12-16T00:56:39.141Z,3.10
2017-12-16T00:59:12.945Z,3.10
2017-12-16T01:01:46.733Z,3.00
2017-12-16T01:04:20.938Z,2.90
2017-12-16T01:06:54.786Z,2.90
2017-12-16T01:09:28.569Z,2.90
2017-12-16T01:12:02.281Z,2.90
2017-12-16T01:14:36.865Z,2.70
2017-12-16T01:17:10.581Z,2.70
2017-12-16T01:19:44.398Z,2.70
2017-12-16T01:22:18.198Z,2.60
2017-12-16T01:24:52.150Z,2.70
2017-12-16T01:27:25.879Z,2.70
2017-12-16T01:30:00.021Z,2.80
2017-12-16T01:32:33.762Z,2.90
2017-12-16T01:35:19.644Z,2.90
2017-12-16T01:38:05.268Z,3.00
2017-12-16T01:40:39.061Z,3.00
2017-12-16T01:43:12.704Z,3.10
2017-12-16T01:45:46.712Z,3.10
2017-12-16T01:48:20.390Z,3.10
2017-12-16T01:50:54.051Z,3.20
2017-12-16T01:53:28.004Z,3.20
2017-12-16T01:56:02.458Z,3.20
2017-12-16T01:58:36.272Z,3.20
2017-12-16T02:01:10.141Z,3.30
2017-12-16T02:03:44.005Z,3.30
2017-12-16T02:06:17.711Z,3.40
2017-12-16T02:08:51.468Z,3.30
2017-12-16T02:11:25.357Z,3.30
2017-12-16T02:13:59.695Z,3.40
2017-12-16T02:16:33.388Z,3.40
2017-12-16T02:19:07.921Z,3.40
2017-12-16T02:21:41.627Z,3.40
2017-12-16T02:24:15.368Z,3.40
2017-12-16T02:26:49.469Z,3.50
2017-12-16T02:29:23.244Z,3.50
2017-12-16T02:31:57.778Z,3.50
2017-12-16T02:34:31.481Z,3.50
2017-12-16T02:37:05.250Z,3.40
2017-12-16T02:39:39.965Z,3.40
2017-12-16T02:42:13.928Z,3.40
2017-12-16T02:44:47.612Z,3.40
2017-12-16T02:47:21.769Z,3.40
2017-12-16T02:49:55.526Z,3.50
2017-12-16T02:52:29.385Z,3.50
2017-12-16T02:55:03.940Z,3.60
2017-12-16T02:57:37.988Z,3.60
2017-12-16T03:00:11.900Z,3.60
2017-12-16T03:02:45.689Z,3.60
2017-12-16T03:05:19.488Z,3.60
2017-12-16T03:07:53.344Z,3.60
2017-12-16T03:10:27.097Z,3.70
2017-12-16T03:13:00.926Z,3.80
2017-12-16T03:15:34.752Z,3.80
2017-12-16T03:18:08.460Z,3.80
2017-12-16T03:20:42.945Z,3.60
2017-12-16T03:23:17.026Z,3.60
2017-12-16T03:25:50.628Z,3.60
2017-12-16T03:28:24.418Z,3.60
2017-12-16T03:31:05.305Z,3.60
2017-12-16T03:33:39.237Z,3.70
2017-12-16T03:36:13.656Z,3.70
2017-12-16T03:38:47.506Z,3.70
2017-12-16T03:41:21.318Z,3.70
2017-12-16T03:43:55.312Z,3.60
2017-12-16T03:46:30.016Z,3.50
2017-12-16T03:49:03.959Z,3.50
2017-12-16T03:51:37.725Z,3.50
2017-12-16T03:54:11.557Z,3.60
2017-12-16T03:56:46.061Z,3.70
2017-12-16T03:59:19.756Z,3.70
2017-12-16T04:01:54.289Z,3.70
2017-12-16T04:04:28.420Z,3.70
2017-12-16T04:07:02.129Z,3.70
2017-12-16T04:09:36.743Z,3.70
2017-12-16T04:12:10.459Z,3.70
2017-12-16T04:14:44.360Z,3.70
2017-12-16T04:17:18.178Z,3.70
2017-12-16T04:19:53.052Z,3.70
2017-12-16T04:22:27.498Z,3.70
2017-12-16T04:25:01.533Z,3.70
2017-12-16T04:27:36.087Z,3.80
2017-12-16T04:30:10.884Z,3.80
2017-12-16T04:32:44.656Z,3.70
2017-12-16T04:35:18.482Z,3.70
2017-12-16T04:37:52.236Z,3.70
2017-12-16T04:40:26.067Z,3.70
2017-12-16T04:43:00.844Z,3.80
2017-12-16T04:45:35.226Z,3.70
2017-12-16T04:48:09.056Z,3.70
2017-12-16T04:50:42.781Z,3.80
2017-12-16T04:53:17.301Z,3.90
2017-12-16T04:55:50.915Z,3.90
2017-12-16T04:58:42.486Z,3.90
2017-12-16T05:01:16.212Z,3.90
2017-12-16T05:03:50.005Z,3.90
2017-12-16T05:06:23.666Z,3.90
2017-12-16T05:08:57.641Z,3.90
2017-12-16T05:11:31.449Z,3.90
2017-12-16T05:14:05.296Z,3.90
2017-12-16T05:16:40.077Z,3.90
2017-12-16T05:19:13.878Z,3.90
2017-12-16T05:21:47.690Z,3.90
2017-12-16T05:24:21.474Z,3.80
2017-12-16T05:26:55.127Z,3.90
2017-12-16T05:29:29.943Z,3.90
2017-12-16T05:32:04.438Z,3.80
2017-12-16T05:34:38.288Z,3.80
2017-12-16T05:37:13.437Z,3.80
2017-12-16T05:39:47.179Z,3.70
2017-12-16T05:42:20.865Z,3.70
2017-12-16T05:44:55.520Z,3.50
2017-12-16T05:47:29.322Z,3.50
2017-12-16T05:50:03.264Z,3.50
2017-12-16T05:52:37.965Z,3.50
2017-12-16T05:55:12.461Z,3.60
2017-12-16T05:57:46.232Z,3.60
2017-12-16T06:00:19.965Z,3.70
2017-12-16T06:02:53.682Z,3.70
2017-12-16T06:05:27.493Z,3.70
2017-12-16T06:08:01.231Z,3.70
2017-12-16T06:10:34.884Z,3.70
2017-12-16T06:13:08.658Z,3.60
2017-12-16T06:15:43.130Z,3.70
2017-12-16T06:18:16.857Z,3.60
2017-12-16T06:20:50.645Z,3.60
2017-12-16T06:23:25.159Z,3.60
2017-12-16T06:25:58.866Z,3.60
2017-12-16T06:28:32.620Z,3.60
2017-12-16T06:31:06.412Z,3.60
2017-12-16T06:33:40.333Z,3.60
2017-12-16T06:36:14.006Z,3.70
2017-12-16T06:38:47.794Z,3.70
2017-12-16T06:41:22.239Z,3.90
2017-12-16T06:43:56.049Z,3.90
2017-12-16T06:46:29.650Z,3.80
2017-12-16T06:49:03.510Z,3.80
2017-12-16T06:51:37.220Z,3.70
2017-12-16T06:54:11.073Z,3.80
2017-12-16T06:56:44.837Z,3.80
2017-12-16T06:59:18.874Z,3.80
2017-12-16T07:01:52.726Z,3.60
2017-12-16T07:04:26.472Z,3.50
2017-12-16T07:07:00.258Z,3.50
2017-12-16T07:09:34.078Z,3.50
2017-12-16T07:12:07.849Z,3.30
2017-12-16T07:14:42.629Z,3.30
2017-12-16T07:17:16.404Z,3.40
2017-12-16T07:19:50.090Z,3.40
2017-12-16T07:22:23.868Z,3.40
2017-12-16T07:24:57.589Z,3.40
2017-12-16T07:27:31.362Z,3.40
2017-12-16T07:30:05.861Z,3.60
2017-12-16T07:32:39.706Z,3.60
2017-12-16T07:35:13.509Z,3.60
2017-12-16T07:37:48.108Z,3.60
2017-12-16T07:40:21.725Z,3.60
2017-12-16T07:42:55.831Z,3.50
2017-12-16T07:45:29.611Z,3.60
2017-12-16T07:48:03.513Z,3.60
2017-12-16T07:50:37.289Z,3.50
2017-12-16T07:53:11.058Z,3.50
2017-12-16T07:55:44.846Z,3.50
2017-12-16T07:58:18.553Z,3.40
2017-12-16T08:00:52.968Z,3.40
2017-12-16T08:03:26.668Z,3.40
2017-12-16T08:06:01.249Z,3.40
2017-12-16T08:08:36.096Z,3.40
2017-12-16T08:11:10.784Z,3.30
2017-12-16T08:13:44.663Z,3.30
2017-12-16T08:16:18.398Z,3.20
2017-12-16T08:19:10.992Z,3.10
2017-12-16T08:21:45.492Z,3.20
2017-12-16T08:24:19.312Z,3.20
2017-12-16T08:26:53.931Z,3.20
2017-12-16T08:29:27.643Z,3.10
2017-12-16T08:32:04.515Z,3.10
2017-12-16T08:34:38.330Z,3.10
2017-12-16T08:37:12.801Z,2.90
2017-12-16T08:39:46.685Z,2.90
2017-12-16T08:42:20.454Z,3.00
2017-12-16T08:44:54.205Z,3.00
2017-12-16T08:47:27.934Z,3.00
2017-12-16T08:50:01.666Z,3.00
2017-12-16T08:52:35.429Z,3.00
2017-12-16T08:55:09.145Z,3.10
2017-12-16T08:57:43.069Z,3.20
2017-12-16T09:00:16.736Z,3.20
2017-12-16T09:02:51.309Z,3.20
2017-12-16T09:05:26.380Z,3.20
2017-12-16T09:08:00.266Z,3.20
2017-12-16T09:10:34.025Z,3.20
2017-12-16T09:13:07.815Z,3.20
2017-12-16T09:15:42.275Z,3.30
2017-12-16T09:18:15.986Z,3.30
2017-12-16T09:20:49.744Z,3.30
2017-12-16T09:23:24.320Z,3.30
2017-12-16T09:25:58.016Z,3.30
2017-12-16T09:28:32.033Z,3.40
2017-12-16T09:31:06.838Z,3.40
2017-12-16T09:33:40.577Z,3.40
2017-12-16T09:36:14.685Z,3.50
2017-12-16T09:38:50.542Z,3.50
2017-12-16T09:41:25.322Z,3.60
2017-12-16T09:43:58.944Z,3.60
2017-12-16T09:46:32.695Z,3.70
2017-12-16T09:49:06.515Z,3.80
2017-12-16T09:51:40.270Z,3.90
2017-12-16T09:54:14.120Z,4.00
2017-12-16T09:56:47.857Z,4.00
2017-12-16T09:59:22.518Z,3.90
2017-12-16T10:01:57.104Z,3.90
2017-12-16T10:04:31.755Z,3.90
2017-12-16T10:07:05.790Z,4.00
2017-12-16T10:09:39.578Z,3.80
2017-12-16T10:12:13.401Z,3.80
2017-12-16T10:14:47.199Z,3.80
2017-12-16T10:17:21.691Z,3.80
2017-12-16T10:19:56.344Z,3.70
2017-12-16T10:22:31.145Z,3.70
2017-12-16T10:25:05.714Z,3.60
2017-12-16T10:27:40.277Z,3.70
2017-12-16T10:30:14.164Z,3.70
2017-12-16T10:32:48.716Z,3.70
2017-12-16T10:35:22.451Z,3.70
2017-12-16T10:37:56.280Z,3.80
2017-12-16T10:40:30.102Z,3.60
2017-12-16T10:43:03.808Z,3.60
2017-12-16T10:45:37.647Z,3.70
2017-12-16T10:48:11.481Z,3.80
2017-12-16T10:50:45.303Z,3.80
2017-12-16T10:53:19.148Z,3.80
2017-12-16T10:55:52.861Z,3.90
2017-12-16T10:58:26.621Z,4.00
2017-12-16T11:01:00.452Z,3.90
2017-12-16T11:03:35.140Z,3.80
2017-12-16T11:06:08.926Z,3.80
2017-12-16T11:08:43.481Z,3.90
2017-12-16T11:11:17.341Z,3.90
2017-12-16T11:13:52.079Z,4.00
2017-12-16T11:16:25.827Z,4.00
2017-12-16T11:19:00.375Z,4.10
2017-12-16T11:21:34.976Z,4.10
2017-12-16T11:24:09.568Z,4.20
2017-12-16T11:26:44.221Z,4.20
2017-12-16T11:29:18.797Z,4.40
2017-12-16T11:31:52.611Z,4.30
2017-12-16T11:34:26.488Z,4.30
2017-12-16T11:37:00.285Z,4.30
2017-12-16T11:39:34.045Z,4.40
2017-12-16T11:42:07.941Z,4.50
2017-12-16T11:44:42.356Z,4.60
2017-12-16T11:47:16.264Z,4.60
2017-12-16T11:49:50.880Z,4.60
2017-12-16T11:52:24.937Z,4.60
2017-12-16T11:54:58.744Z,4.60
2017-12-16T11:57:33.273Z,4.70
2017-12-16T12:00:07.868Z,4.60
2017-12-16T12:02:42.628Z,4.70
2017-12-16T12:05:16.332Z,4.70
2017-12-16T12:07:50.198Z,4.80
2017-12-16T12:10:23.937Z,4.90
2017-12-16T12:13:00.481Z,5.10
2017-12-16T12:15:34.258Z,5.10
2017-12-16T12:18:08.803Z,4.90
2017-12-16T12:20:42.642Z,4.90
2017-12-16T12:23:16.527Z,4.90
2017-12-16T12:25:51.165Z,4.90
2017-12-16T12:28:24.933Z,4.90
2017-12-16T12:30:58.685Z,4.90
2017-12-16T12:33:32.529Z,5.00
2017-12-16T12:36:06.255Z,4.90
2017-12-16T12:38:40.073Z,5.00
2017-12-16T12:41:13.846Z,5.10
2017-12-16T12:43:47.619Z,5.10
2017-12-16T12:46:21.401Z,5.00
2017-12-16T12:48:55.159Z,5.00
2017-12-16T12:51:28.883Z,5.10
2017-12-16T12:54:02.796Z,5.10
2017-12-16T12:56:36.564Z,5.00
2017-12-16T12:59:11.340Z,5.10
2017-12-16T13:01:45.150Z,5.10
2017-12-16T13:04:19.752Z,5.30
2017-12-16T13:06:53.669Z,5.30
2017-12-16T13:09:28.717Z,5.50
2017-12-16T13:12:02.522Z,5.50
2017-12-16T13:14:36.351Z,5.40
2017-12-16T13:17:10.859Z,4.90
2017-12-16T13:19:44.633Z,4.90
2017-12-16T13:22:19.289Z,4.90
2017-12-16T13:24:53.873Z,4.90
2017-12-16T13:27:27.729Z,4.90
2017-12-16T13:30:01.769Z,4.90
2017-12-16T13:32:36.328Z,4.80
2017-12-16T13:35:10.101Z,4.80
2017-12-16T13:37:45.399Z,4.80
2017-12-16T13:40:19.121Z,4.80
2017-12-16T13:42:52.782Z,4.80
2017-12-16T13:45:26.652Z,4.90
2017-12-16T13:48:01.152Z,5.10
2017-12-16T13:50:35.060Z,5.00
2017-12-16T13:53:09.716Z,5.00
2017-12-16T13:55:43.804Z,5.00
2017-12-16T13:58:17.660Z,5.10
2017-12-16T14:00:52.162Z,4.90
2017-12-16T14:03:25.782Z,4.90
2017-12-16T14:05:59.636Z,4.90
2017-12-16T14:08:33.352Z,4.90
2017-12-16T14:11:07.057Z,4.90
2017-12-16T14:13:40.942Z,5.00
2017-12-16T14:16:15.649Z,4.90
2017-12-16T14:18:49.594Z,4.80
2017-12-16T14:21:23.308Z,4.80
2017-12-16T14:23:57.160Z,4.80
2017-12-16T14:26:30.851Z,4.80
2017-12-16T14:29:05.464Z,4.70
2017-12-16T14:31:39.240Z,4.70
2017-12-16T14:34:13.298Z,4.70
2017-12-16T14:36:47.957Z,4.80
2017-12-16T14:39:22.080Z,4.80
2017-12-16T14:41:55.827Z,4.70
2017-12-16T14:44:29.895Z,4.70
2017-12-16T14:47:04.837Z,4.70
2017-12-16T14:49:39.520Z,4.60
2017-12-16T14:52:13.392Z,4.60
2017-12-16T14:54:47.186Z,4.40
2017-12-16T14:57:20.969Z,4.40
2017-12-16T14:59:54.943Z,4.40
2017-12-16T15:02:29.047Z,4.30
2017-12-16T15:05:02.895Z,4.30
2017-12-16T15:07:36.816Z,4.30
2017-12-16T15:10:11.889Z,4.30
2017-12-16T15:12:46.104Z,4.40
2017-12-16T15:15:20.061Z,4.20
2017-12-16T15:17:53.927Z,4.00
2017-12-16T15:20:28.079Z,3.80
2017-12-16T15:23:02.605Z,3.60
2017-12-16T15:25:36.484Z,3.50
2017-12-16T15:28:10.363Z,3.40
2017-12-16T15:30:45.037Z,3.20
2017-12-16T15:33:18.938Z,3.00
2017-12-16T15:35:52.818Z,3.00
2017-12-16T15:38:27.519Z,3.10
2017-12-16T15:41:01.458Z,3.10
2017-12-16T15:43:36.529Z,3.10
2017-12-16T15:46:10.283Z,3.20
2017-12-16T15:48:44.950Z,3.20
2017-12-16T15:51:19.041Z,3.20
2017-12-16T15:53:52.813Z,3.20
2017-12-16T15:56:26.610Z,3.20
2017-12-16T15:59:00.417Z,3.30
2017-12-16T16:01:35.619Z,3.30
2017-12-16T16:04:09.402Z,3.30
2017-12-16T16:06:44.022Z,3.40
2017-12-16T16:09:18.131Z,3.40
2017-12-16T16:11:52.945Z,3.40
2017-12-16T16:14:27.791Z,3.40
2017-12-16T16:17:01.908Z,3.40
2017-12-16T16:19:38.109Z,3.50
2017-12-16T16:22:11.903Z,3.60
2017-12-16T16:24:46.638Z,3.70
2017-12-16T16:27:20.894Z,3.70
2017-12-16T16:29:54.774Z,3.70
2017-12-16T16:32:29.437Z,3.80
2017-12-16T16:35:04.317Z,3.80
2017-12-16T16:37:38.340Z,3.80
2017-12-16T16:40:14.053Z,3.80
2017-12-16T16:42:47.997Z,3.80
2017-12-16T16:45:22.619Z,3.80
2017-12-16T16:47:57.553Z,3.80
2017-12-16T16:50:31.463Z,3.80
2017-12-16T16:53:05.263Z,3.80
2017-12-16T16:55:39.016Z,3.80
2017-12-16T16:58:12.883Z,3.80
2017-12-16T17:00:46.698Z,3.80
2017-12-16T17:03:20.507Z,3.80
2017-12-16T17:05:54.412Z,3.80
2017-12-16T17:08:28.229Z,3.70
2017-12-16T17:11:02.132Z,3.70
2017-12-16T17:13:35.826Z,3.60
2017-12-16T17:16:09.607Z,3.60
2017-12-16T17:18:43.248Z,3.60
2017-12-16T17:21:17.054Z,3.60
2017-12-16T17:23:50.895Z,3.60
2017-12-16T17:26:24.726Z,3.60
2017-12-16T17:28:58.568Z,3.60
2017-12-16T17:31:32.428Z,3.60
2017-12-16T17:34:06.309Z,3.50
2017-12-16T17:36:40.391Z,3.40
2017-12-16T17:39:14.267Z,3.40
2017-12-16T17:41:48.113Z,3.40
2017-12-16T17:44:21.904Z,3.50
2017-12-16T17:46:56.544Z,3.50
2017-12-16T17:49:30.531Z,3.50
2017-12-16T17:52:04.286Z,3.50
2017-12-16T17:54:38.809Z,3.50
2017-12-16T17:57:12.634Z,3.50
2017-12-16T17:59:46.463Z,3.60
2017-12-16T18:02:20.192Z,3.60
2017-12-16T18:04:54.109Z,3.60
2017-12-16T18:07:28.580Z,3.60
2017-12-16T18:10:03.127Z,3.50
2017-12-16T18:12:37.090Z,3.50
2017-12-16T18:15:11.566Z,3.50
2017-12-16T18:17:45.419Z,3.50
2017-12-16T18:20:19.132Z,3.60
2017-12-16T18:22:52.887Z,3.60
2017-12-16T18:25:26.679Z,3.50
2017-12-16T18:28:00.684Z,3.50
2017-12-16T18:30:34.982Z,3.50
2017-12-16T18:33:08.673Z,3.40
2017-12-16T18:35:42.514Z,3.40
2017-12-16T18:38:16.238Z,3.40
2017-12-16T18:40:51.268Z,3.40
2017-12-16T18:43:24.999Z,3.40
2017-12-16T18:45:58.896Z,3.40
2017-12-16T18:48:33.416Z,3.40
2017-12-16T18:51:07.274Z,3.30
2017-12-16T18:53:41.033Z,3.30
2017-12-16T18:56:14.842Z,3.20
2017-12-16T18:58:49.588Z,3.20
2017-12-16T19:01:24.352Z,3.30
2017-12-16T19:03:57.969Z,3.20
2017-12-16T19:06:31.846Z,3.10
2017-12-16T19:09:06.460Z,3.20
2017-12-16T19:11:40.145Z,3.20
2017-12-16T19:14:13.882Z,3.20
2017-12-16T19:16:47.777Z,3.20
2017-12-16T19:19:21.522Z,3.20
2017-12-16T19:21:55.303Z,3.30
2017-12-16T19:24:29.152Z,3.20
2017-12-16T19:27:03.639Z,3.30
2017-12-16T19:29:38.220Z,3.30
2017-12-16T19:32:12.131Z,3.30
2017-12-16T19:34:49.222Z,3.30
2017-12-16T19:37:23.167Z,3.30
2017-12-16T19:39:57.775Z,3.30
2017-12-16T19:42:31.715Z,3.30
2017-12-16T19:45:06.365Z,3.40
2017-12-16T19:47:40.231Z,3.40
2017-12-16T19:50:13.981Z,3.40
2017-12-16T19:52:47.704Z,3.40
2017-12-16T19:55:21.619Z,3.30
2017-12-16T19:57:55.371Z,3.30
2017-12-16T20:00:29.889Z,3.40
2017-12-16T20:03:03.768Z,3.40
2017-12-16T20:05:38.295Z,3.40
2017-12-16T20:08:12.187Z,3.40
2017-12-16T20:10:45.994Z,3.40
2017-12-16T20:13:19.822Z,3.40
2017-12-16T20:15:53.637Z,3.40
2017-12-16T20:18:27.578Z,3.40
2017-12-16T20:21:02.542Z,3.40
2017-12-16T20:23:36.354Z,3.40
2017-12-16T20:26:10.204Z,3.40
2017-12-16T20:28:44.168Z,3.40
2017-12-16T20:31:18.725Z,3.30
2017-12-16T20:33:56.198Z,3.30
2017-12-16T20:36:30.892Z,3.30
2017-12-16T20:39:05.447Z,3.30
2017-12-16T20:41:39.154Z,3.30
2017-12-16T20:44:13.000Z,3.30
2017-12-16T20:46:46.823Z,3.20
2017-12-16T20:49:28.155Z,3.20
2017-12-16T20:52:01.944Z,3.10
2017-12-16T20:54:36.492Z,3.10
2017-12-16T20:57:10.963Z,3.10
2017-12-16T20:59:44.921Z,3.10
2017-12-16T21:02:18.780Z,3.00
2017-12-16T21:04:57.488Z,3.00
2017-12-16T21:07:32.083Z,2.90
2017-12-16T21:10:05.968Z,2.90
2017-12-16T21:12:40.658Z,2.90
2017-12-16T21:15:15.376Z,2.90
2017-12-16T21:17:49.161Z,2.90
2017-12-16T21:20:22.975Z,2.90
2017-12-16T21:22:56.923Z,2.90
2017-12-16T21:25:30.764Z,2.90
2017-12-16T21:28:04.632Z,3.00
2017-12-16T21:30:39.336Z,3.00
2017-12-16T21:33:13.104Z,3.00
2017-12-16T21:35:47.096Z,3.00
2017-12-16T21:38:21.735Z,2.90
2017-12-16T21:40:55.778Z,3.00
2017-12-16T21:43:29.471Z,3.00
2017-12-16T21:46:03.291Z,2.90
2017-12-16T21:48:37.962Z,3.00
2017-12-16T21:51:11.915Z,3.00
2017-12-16T21:53:45.784Z,3.00
2017-12-16T21:56:20.427Z,3.10
2017-12-16T21:58:54.450Z,3.10
2017-12-16T22:01:28.965Z,3.10
2017-12-16T22:04:02.937Z,3.10
2017-12-16T22:06:37.537Z,3.10
2017-12-16T22:09:11.331Z,3.10
2017-12-16T22:11:45.245Z,3.10
2017-12-16T22:14:19.822Z,2.90
2017-12-16T22:16:53.640Z,2.90
2017-12-16T22:19:27.532Z,2.90
2017-12-16T22:22:01.451Z,2.90
2017-12-16T22:24:36.071Z,2.90
2017-12-16T22:27:10.162Z,2.90
2017-12-16T22:29:44.049Z,2.90
2017-12-16T22:32:18.618Z,2.90
2017-12-16T22:34:52.372Z,2.90
2017-12-16T22:37:26.123Z,2.90
2017-12-16T22:39:59.956Z,2.90
2017-12-16T22:42:33.688Z,2.90
2017-12-16T22:45:07.807Z,2.80
2017-12-16T22:47:41.636Z,2.80
2017-12-16T22:50:15.520Z,2.80
2017-12-16T22:52:50.063Z,2.80
2017-12-16T22:55:23.875Z,2.80
2017-12-16T22:57:57.799Z,2.80
2017-12-16T23:00:31.562Z,2.80
2017-12-16T23:03:05.305Z,2.80
2017-12-16T23:05:44.759Z,2.80
2017-12-16T23:08:18.497Z,2.80
2017-12-16T23:10:52.339Z,2.80
2017-12-16T23:13:26.549Z,2.90
2017-12-16T23:16:00.290Z,2.90
2017-12-16T23:18:34.089Z,3.00
2017-12-16T23:21:08.385Z,3.00
2017-12-16T23:23:42.276Z,3.00
2017-12-16T23:26:20.316Z,3.00
2017-12-16T23:28:54.194Z,3.00
2017-12-16T23:31:27.991Z,3.00
2017-12-16T23:34:01.854Z,3.10
2017-12-16T23:36:36.436Z,3.20
2017-12-16T23:39:11.027Z,3.20
2017-12-16T23:41:44.911Z,3.20
2017-12-16T23:44:18.926Z,3.10
2017-12-16T23:46:52.811Z,3.20
2017-12-16T23:49:27.416Z,3.20
2017-12-16T23:52:01.318Z,3.20
2017-12-16T23:54:35.950Z,3.20
2017-12-16T23:57:09.800Z,3.20
2017-12-16T23:59:43.576Z,3.20
